createdAt,value
2019-02-08T00:00:00.016Z,18.08
2019-02-08T00:01:00.711Z,18.08
2019-02-08T00:02:01.117Z,18.09
2019-02-08T00:03:00.031Z,18.07
2019-02-08T00:04:00.002Z,18.06
2019-02-08T00:04:59.784Z,18.04
2019-02-08T00:06:00.001Z,18.04
2019-02-08T00:07:01.944Z,18.06
2019-02-08T00:07:59.859Z,18.05
2019-02-08T00:08:59.955Z,18.05
2019-02-08T00:09:59.805Z,18.02
2019-02-08T00:11:00.012Z,18
2019-02-08T00:11:59.980Z,18.03
2019-02-08T00:12:59.807Z,18.03
2019-02-08T00:14:00.794Z,18
2019-02-08T00:15:00.366Z,18
2019-02-08T00:16:00.336Z,17.99
2019-02-08T00:16:59.996Z,17.99
2019-02-08T00:17:59.835Z,17.99
2019-02-08T00:18:59.828Z,18
2019-02-08T00:20:00.002Z,17.99
2019-02-08T00:21:00.181Z,17.98
2019-02-08T00:22:01.339Z,17.96
2019-02-08T00:23:00.292Z,17.99
2019-02-08T00:23:59.948Z,17.97
2019-02-08T00:25:00.744Z,17.97
2019-02-08T00:26:00.784Z,17.97
2019-02-08T00:26:59.803Z,17.94
2019-02-08T00:28:00.047Z,17.95
2019-02-08T00:29:00.564Z,17.96
2019-02-08T00:29:59.854Z,17.96
2019-02-08T00:30:59.559Z,17.95
2019-02-08T00:32:00.064Z,17.93
2019-02-08T00:33:00.033Z,17.91
2019-02-08T00:33:59.857Z,17.91
2019-02-08T00:35:01.217Z,17.91
2019-02-08T00:36:00.139Z,17.9
2019-02-08T00:37:01.235Z,17.9
2019-02-08T00:38:00.488Z,17.91
2019-02-08T00:38:59.890Z,17.9
2019-02-08T00:39:59.945Z,17.9
2019-02-08T00:40:59.810Z,17.89
2019-02-08T00:42:00.367Z,17.87
2019-02-08T00:43:00.091Z,17.89
2019-02-08T00:44:01.319Z,17.89
2019-02-08T00:44:59.789Z,17.87
2019-02-08T00:46:00.046Z,17.88
2019-02-08T00:47:00.828Z,17.84
2019-02-08T00:47:59.829Z,17.87
2019-02-08T00:49:00.471Z,17.84
2019-02-08T00:49:59.744Z,17.83
2019-02-08T00:51:00.055Z,17.83
2019-02-08T00:52:01.449Z,17.84
2019-02-08T00:53:00.097Z,17.83
2019-02-08T00:54:01.199Z,17.82
2019-02-08T00:54:59.761Z,17.85
2019-02-08T00:55:59.846Z,17.82
2019-02-08T00:56:59.855Z,17.81
2019-02-08T00:58:00.498Z,17.82
2019-02-08T00:59:00.986Z,17.8
2019-02-08T01:00:00.012Z,17.8
2019-02-08T01:00:59.811Z,17.8
2019-02-08T01:02:00.298Z,17.8
2019-02-08T01:02:59.530Z,17.8
2019-02-08T01:03:59.994Z,17.78
2019-02-08T01:04:59.788Z,17.79
2019-02-08T01:05:59.684Z,17.79
2019-02-08T01:07:01.347Z,17.78
2019-02-08T01:08:01.313Z,17.76
2019-02-08T01:09:00.263Z,17.77
2019-02-08T01:10:00.952Z,17.76
2019-02-08T01:11:00.755Z,17.76
2019-02-08T01:12:00.180Z,17.77
2019-02-08T01:13:00.204Z,17.77
2019-02-08T01:14:01.091Z,17.75
2019-02-08T01:15:00.539Z,17.76
2019-02-08T01:15:59.946Z,17.76
2019-02-08T01:17:00.715Z,17.75
2019-02-08T01:18:00.161Z,17.75
2019-02-08T01:19:00.354Z,17.73
2019-02-08T01:19:59.981Z,17.73
2019-02-08T01:21:00.052Z,17.73
2019-02-08T01:21:59.846Z,17.73
2019-02-08T01:22:59.992Z,17.72
2019-02-08T01:24:00.561Z,17.69
2019-02-08T01:24:59.954Z,17.72
2019-02-08T01:26:00.157Z,17.7
2019-02-08T01:27:00.544Z,17.72
2019-02-08T01:28:00.379Z,17.68
2019-02-08T01:29:00.287Z,17.69
2019-02-08T01:30:00.344Z,17.68
2019-02-08T01:31:00.162Z,17.67
2019-02-08T01:31:59.926Z,17.67
2019-02-08T01:32:59.667Z,17.68
2019-02-08T01:34:00.777Z,17.68
2019-02-08T01:34:59.955Z,17.68
2019-02-08T01:35:59.720Z,17.67
2019-02-08T01:37:00.044Z,17.64
2019-02-08T01:37:59.969Z,17.65
2019-02-08T01:39:00.366Z,17.65
2019-02-08T01:40:01.588Z,17.66
2019-02-08T01:41:01.733Z,17.65
2019-02-08T01:42:00.271Z,17.65
2019-02-08T01:43:00.184Z,17.64
2019-02-08T01:43:59.788Z,17.63
2019-02-08T01:44:59.826Z,17.65
2019-02-08T01:45:59.744Z,17.63
2019-02-08T01:46:59.908Z,17.63
2019-02-08T01:47:59.889Z,17.62
2019-02-08T01:49:00.017Z,17.62
2019-02-08T01:49:59.873Z,17.63
2019-02-08T01:51:00.033Z,17.63
2019-02-08T01:52:00.047Z,17.61
2019-02-08T01:52:59.650Z,17.6
2019-02-08T01:53:59.959Z,17.61
2019-02-08T01:54:59.822Z,17.59
2019-02-08T01:55:59.879Z,17.61
2019-02-08T01:56:59.897Z,17.59
2019-02-08T01:57:59.850Z,17.61
2019-02-08T01:58:59.892Z,17.6
2019-02-08T01:59:59.807Z,17.6
2019-02-08T02:00:59.678Z,17.59
2019-02-08T02:01:59.758Z,17.56
2019-02-08T02:03:00.134Z,17.58
2019-02-08T02:04:00.025Z,17.59
2019-02-08T02:05:00.029Z,17.56
2019-02-08T02:05:59.768Z,17.58
2019-02-08T02:06:59.681Z,17.55
2019-02-08T02:08:00.094Z,17.55
2019-02-08T02:08:59.860Z,17.58
2019-02-08T02:09:59.727Z,17.55
2019-02-08T02:11:00.268Z,17.58
2019-02-08T02:11:59.993Z,17.55
2019-02-08T02:12:59.620Z,17.54
2019-02-08T02:13:59.849Z,17.55
2019-02-08T02:15:00.465Z,17.54
2019-02-08T02:16:00.219Z,17.54
2019-02-08T02:16:59.963Z,17.52
2019-02-08T02:18:00.340Z,17.54
2019-02-08T02:18:59.725Z,17.53
2019-02-08T02:20:00.911Z,17.52
2019-02-08T02:20:59.459Z,17.51
2019-02-08T02:22:00.599Z,17.5
2019-02-08T02:22:59.649Z,17.49
2019-02-08T02:24:00.310Z,17.5
2019-02-08T02:24:59.974Z,17.51
2019-02-08T02:26:00.284Z,17.51
2019-02-08T02:26:59.684Z,17.5
2019-02-08T02:27:59.591Z,17.5
2019-02-08T02:29:00.507Z,17.49
2019-02-08T02:29:59.842Z,17.5
2019-02-08T02:31:00.022Z,17.5
2019-02-08T02:31:59.936Z,17.51
2019-02-08T02:33:00.940Z,17.49
2019-02-08T02:33:59.792Z,17.5
2019-02-08T02:34:59.777Z,17.5
2019-02-08T02:36:00.895Z,17.46
2019-02-08T02:37:00.376Z,17.48
2019-02-08T02:37:59.880Z,17.47
2019-02-08T02:38:59.732Z,17.47
2019-02-08T02:39:59.953Z,17.46
2019-02-08T02:41:01.570Z,17.46
2019-02-08T02:42:00.077Z,17.47
2019-02-08T02:42:59.996Z,17.46
2019-02-08T02:44:00.665Z,17.44
2019-02-08T02:45:00.126Z,17.45
2019-02-08T02:45:59.719Z,17.47
2019-02-08T02:47:00.362Z,17.45
2019-02-08T02:47:59.829Z,17.44
2019-02-08T02:48:59.844Z,17.43
2019-02-08T02:50:00.366Z,17.43
2019-02-08T02:51:00.326Z,17.44
2019-02-08T02:51:59.450Z,17.41
2019-02-08T02:53:00.119Z,17.41
2019-02-08T02:54:05.296Z,17.4
2019-02-08T02:54:59.772Z,17.41
2019-02-08T02:55:59.981Z,17.43
2019-02-08T02:56:59.765Z,17.43
2019-02-08T02:57:59.690Z,17.41
2019-02-08T02:58:59.868Z,17.4
2019-02-08T02:59:59.821Z,17.39
2019-02-08T03:01:00.390Z,17.4
2019-02-08T03:01:59.791Z,17.39
2019-02-08T03:03:00.171Z,17.39
2019-02-08T03:04:00.281Z,17.4
2019-02-08T03:04:59.822Z,17.37
2019-02-08T03:05:59.501Z,17.4
2019-02-08T03:07:00.089Z,17.37
2019-02-08T03:08:00.293Z,17.38
2019-02-08T03:08:59.573Z,17.38
2019-02-08T03:10:00.298Z,17.37
2019-02-08T03:11:01.466Z,17.39
2019-02-08T03:12:00.003Z,17.36
2019-02-08T03:13:00.315Z,17.38
2019-02-08T03:14:00.010Z,17.37
2019-02-08T03:15:00.045Z,17.37
2019-02-08T03:15:59.729Z,17.36
2019-02-08T03:17:00.034Z,17.36
2019-02-08T03:18:00.074Z,17.36
2019-02-08T03:18:59.750Z,17.33
2019-02-08T03:19:59.900Z,17.35
2019-02-08T03:20:59.990Z,17.34
2019-02-08T03:21:59.692Z,17.33
2019-02-08T03:23:00.194Z,17.33
2019-02-08T03:23:59.881Z,17.35
2019-02-08T03:24:59.800Z,17.32
2019-02-08T03:25:59.755Z,17.33
2019-02-08T03:27:01.700Z,17.32
2019-02-08T03:27:59.808Z,17.32
2019-02-08T03:28:59.884Z,17.33
2019-02-08T03:29:59.827Z,17.31
2019-02-08T03:31:00.085Z,17.32
2019-02-08T03:31:59.951Z,17.31
2019-02-08T03:32:59.509Z,17.31
2019-02-08T03:33:59.950Z,17.3
2019-02-08T03:34:59.869Z,17.32
2019-02-08T03:36:01.543Z,17.29
2019-02-08T03:37:00.015Z,17.28
2019-02-08T03:37:59.971Z,17.28
2019-02-08T03:38:59.858Z,17.3
2019-02-08T03:40:00.378Z,17.3
2019-02-08T03:40:59.998Z,17.28
2019-02-08T03:42:00.058Z,17.28
2019-02-08T03:42:59.858Z,17.29
2019-02-08T03:43:59.826Z,17.29
2019-02-08T03:44:59.776Z,17.28
2019-02-08T03:45:59.985Z,17.28
2019-02-08T03:47:00.164Z,17.28
2019-02-08T03:48:00.059Z,17.25
2019-02-08T03:49:00.402Z,17.26
2019-02-08T03:49:59.582Z,17.26
2019-02-08T03:51:01.590Z,17.24
2019-02-08T03:51:59.813Z,17.24
2019-02-08T03:52:59.965Z,17.26
2019-02-08T03:53:59.850Z,17.24
2019-02-08T03:55:00.020Z,17.25
2019-02-08T03:56:00.009Z,17.25
2019-02-08T03:56:59.694Z,17.24
2019-02-08T03:58:00.046Z,17.24
2019-02-08T03:59:00.678Z,17.23
2019-02-08T04:00:00.322Z,17.25
2019-02-08T04:01:00.365Z,17.21
2019-02-08T04:02:00.369Z,17.22
2019-02-08T04:02:59.805Z,17.22
2019-02-08T04:04:00.058Z,17.23
2019-02-08T04:04:59.696Z,17.22
2019-02-08T04:06:00.072Z,17.19
2019-02-08T04:07:00.345Z,17.22
2019-02-08T04:08:00.209Z,17.23
2019-02-08T04:09:00.109Z,17.22
2019-02-08T04:09:59.767Z,17.21
2019-02-08T04:11:00.226Z,17.2
2019-02-08T04:12:00.237Z,17.22
2019-02-08T04:12:59.821Z,17.21
2019-02-08T04:13:59.760Z,17.22
2019-02-08T04:15:01.569Z,17.21
2019-02-08T04:16:00.054Z,17.21
2019-02-08T04:17:00.052Z,17.19
2019-02-08T04:17:59.763Z,17.2
2019-02-08T04:18:59.575Z,17.19
2019-02-08T04:19:59.578Z,17.19
2019-02-08T04:20:59.922Z,17.18
2019-02-08T04:21:59.815Z,17.2
2019-02-08T04:23:00.306Z,17.2
2019-02-08T04:23:59.725Z,17.19
2019-02-08T04:24:59.873Z,17.18
2019-02-08T04:25:59.969Z,17.17
2019-02-08T04:26:59.626Z,17.18
2019-02-08T04:28:00.345Z,17.17
2019-02-08T04:29:00.554Z,17.16
2019-02-08T04:29:59.861Z,17.19
2019-02-08T04:30:59.960Z,17.17
2019-02-08T04:32:00.052Z,17.16
2019-02-08T04:33:01.329Z,17.16
2019-02-08T04:33:59.796Z,17.16
2019-02-08T04:35:00.685Z,17.15
2019-02-08T04:35:59.542Z,17.15
2019-02-08T04:37:00.101Z,17.16
2019-02-08T04:38:00.117Z,17.16
2019-02-08T04:38:59.893Z,17.16
2019-02-08T04:40:00.458Z,17.16
2019-02-08T04:41:01.429Z,17.15
2019-02-08T04:42:00.292Z,17.14
2019-02-08T04:43:00.110Z,17.15
2019-02-08T04:44:00.084Z,17.16
2019-02-08T04:44:59.700Z,17.13
2019-02-08T04:45:59.948Z,17.16
2019-02-08T04:47:01.503Z,17.13
2019-02-08T04:47:59.799Z,17.15
2019-02-08T04:48:59.512Z,17.16
2019-02-08T04:50:00.050Z,17.16
2019-02-08T04:50:59.845Z,17.15
2019-02-08T04:51:59.893Z,17.17
2019-02-08T04:53:00.235Z,17.14
2019-02-08T04:54:01.611Z,17.17
2019-02-08T04:54:59.671Z,17.15
2019-02-08T04:55:59.815Z,17.18
2019-02-08T04:56:59.855Z,17.16
2019-02-08T04:58:00.068Z,17.19
2019-02-08T04:58:59.807Z,17.17
2019-02-08T05:00:01.530Z,17.19
2019-02-08T05:01:00.673Z,17.22
2019-02-08T05:02:00.433Z,17.2
2019-02-08T05:02:59.983Z,17.22
2019-02-08T05:04:00.317Z,17.2
2019-02-08T05:04:59.791Z,17.22
2019-02-08T05:06:00.002Z,17.22
2019-02-08T05:06:59.706Z,17.23
2019-02-08T05:07:59.920Z,17.23
2019-02-08T05:08:59.913Z,17.25
2019-02-08T05:10:00.399Z,17.26
2019-02-08T05:10:59.835Z,17.28
2019-02-08T05:11:59.855Z,17.28
2019-02-08T05:12:59.625Z,17.29
2019-02-08T05:13:59.972Z,17.29
2019-02-08T05:14:59.947Z,17.31
2019-02-08T05:15:59.799Z,17.33
2019-02-08T05:17:00.003Z,17.35
2019-02-08T05:18:01.623Z,17.37
2019-02-08T05:18:59.642Z,17.37
2019-02-08T05:20:00.009Z,17.38
2019-02-08T05:20:59.889Z,17.4
2019-02-08T05:21:59.818Z,17.39
2019-02-08T05:23:00.451Z,17.44
2019-02-08T05:23:59.910Z,17.43
2019-02-08T05:24:59.791Z,17.44
2019-02-08T05:25:59.985Z,17.46
2019-02-08T05:26:59.451Z,17.49
2019-02-08T05:27:59.946Z,17.51
2019-02-08T05:29:01.464Z,17.52
2019-02-08T05:29:59.663Z,17.54
2019-02-08T05:30:59.981Z,17.54
2019-02-08T05:31:59.841Z,17.56
2019-02-08T05:33:00.127Z,17.58
2019-02-08T05:33:59.724Z,17.56
2019-02-08T05:35:00.742Z,17.59
2019-02-08T05:35:59.551Z,17.62
2019-02-08T05:37:01.540Z,17.64
2019-02-08T05:37:59.630Z,17.66
2019-02-08T05:39:00.167Z,17.66
2019-02-08T05:39:59.751Z,17.67
2019-02-08T05:41:01.468Z,17.68
2019-02-08T05:41:59.879Z,17.68
2019-02-08T05:42:59.761Z,17.73
2019-02-08T05:43:59.758Z,17.7
2019-02-08T05:44:59.677Z,17.7
2019-02-08T05:45:59.971Z,17.75
2019-02-08T05:46:59.504Z,17.75
2019-02-08T05:48:00.044Z,17.75
2019-02-08T05:49:00.099Z,17.76
2019-02-08T05:50:00.590Z,17.78
2019-02-08T05:50:59.867Z,17.75
2019-02-08T05:51:59.998Z,17.79
2019-02-08T05:52:59.850Z,17.8
2019-02-08T05:53:59.732Z,17.82
2019-02-08T05:54:59.665Z,17.81
2019-02-08T05:55:59.967Z,17.81
2019-02-08T05:56:59.889Z,17.79
2019-02-08T05:57:59.580Z,17.84
2019-02-08T05:59:01.153Z,17.84
2019-02-08T06:00:00.341Z,17.83
2019-02-08T06:01:01.335Z,17.83
2019-02-08T06:02:00.133Z,17.85
2019-02-08T06:02:59.796Z,17.87
2019-02-08T06:03:59.909Z,17.87
2019-02-08T06:04:59.676Z,17.85
2019-02-08T06:05:59.872Z,17.87
2019-02-08T06:06:59.610Z,17.87
2019-02-08T06:08:00.308Z,17.84
2019-02-08T06:08:59.505Z,17.88
2019-02-08T06:09:59.939Z,17.85
2019-02-08T06:11:00.047Z,17.85
2019-02-08T06:11:59.753Z,17.87
2019-02-08T06:13:00.061Z,17.88
2019-02-08T06:14:00.287Z,17.88
2019-02-08T06:15:00.027Z,17.88
2019-02-08T06:15:59.819Z,17.87
2019-02-08T06:17:00.717Z,17.87
2019-02-08T06:17:59.627Z,17.88
2019-02-08T06:19:00.278Z,17.89
2019-02-08T06:20:00.435Z,17.87
2019-02-08T06:20:59.874Z,17.85
2019-02-08T06:22:00.058Z,17.9
2019-02-08T06:22:59.754Z,17.9
2019-02-08T06:23:59.761Z,17.87
2019-02-08T06:25:05.103Z,17.88
2019-02-08T06:25:59.848Z,17.88
2019-02-08T06:27:00.097Z,17.89
2019-02-08T06:28:00.302Z,17.88
2019-02-08T06:29:00.093Z,17.89
2019-02-08T06:30:00.478Z,17.88
2019-02-08T06:31:00.646Z,17.87
2019-02-08T06:31:59.701Z,17.87
2019-02-08T06:32:59.991Z,17.85
2019-02-08T06:33:59.772Z,17.87
2019-02-08T06:35:00.444Z,17.88
2019-02-08T06:35:59.927Z,17.87
2019-02-08T06:36:59.841Z,17.84
2019-02-08T06:38:00.219Z,17.84
2019-02-08T06:38:59.473Z,17.84
2019-02-08T06:40:00.462Z,17.84
2019-02-08T06:40:59.489Z,17.85
2019-02-08T06:41:59.631Z,17.84
2019-02-08T06:42:59.894Z,17.83
2019-02-08T06:44:00.534Z,17.81
2019-02-08T06:44:59.878Z,17.84
2019-02-08T06:45:59.803Z,17.85
2019-02-08T06:46:59.561Z,17.83
2019-02-08T06:48:00.048Z,17.84
2019-02-08T06:49:00.417Z,17.82
2019-02-08T06:49:59.927Z,17.82
2019-02-08T06:51:00.038Z,17.83
2019-02-08T06:51:59.422Z,17.81
2019-02-08T06:52:59.544Z,17.81
2019-02-08T06:53:59.829Z,17.82
2019-02-08T06:54:59.851Z,17.81
2019-02-08T06:55:59.885Z,17.81
2019-02-08T06:56:59.516Z,17.8
2019-02-08T06:57:59.779Z,17.81
2019-02-08T06:58:59.812Z,17.83
2019-02-08T06:59:59.684Z,17.81
2019-02-08T07:00:59.683Z,17.81
2019-02-08T07:01:59.884Z,17.8
2019-02-08T07:02:59.757Z,17.79
2019-02-08T07:04:01.475Z,17.79
2019-02-08T07:04:59.698Z,17.8
2019-02-08T07:05:59.893Z,17.79
2019-02-08T07:06:59.720Z,17.8
2019-02-08T07:08:00.230Z,17.78
2019-02-08T07:09:00.223Z,17.79
2019-02-08T07:09:59.918Z,17.8
2019-02-08T07:10:59.949Z,17.79
2019-02-08T07:11:59.396Z,17.79
2019-02-08T07:13:00.107Z,17.77
2019-02-08T07:14:01.396Z,17.77
2019-02-08T07:14:59.479Z,17.78
2019-02-08T07:15:59.549Z,17.77
2019-02-08T07:17:00.759Z,17.78
2019-02-08T07:17:59.482Z,17.8
2019-02-08T07:18:59.816Z,17.78
2019-02-08T07:20:00.342Z,17.76
2019-02-08T07:21:00.018Z,17.77
2019-02-08T07:22:00.161Z,17.78
2019-02-08T07:22:59.606Z,17.77
2019-02-08T07:24:00.173Z,17.77
2019-02-08T07:24:59.978Z,17.77
2019-02-08T07:26:00.797Z,17.77
2019-02-08T07:27:00.314Z,17.77
2019-02-08T07:27:59.877Z,17.77
2019-02-08T07:28:59.987Z,17.76
2019-02-08T07:30:00.197Z,17.76
2019-02-08T07:30:59.949Z,17.76
2019-02-08T07:32:00.431Z,17.77
2019-02-08T07:33:00.022Z,17.76
2019-02-08T07:33:59.524Z,17.76
2019-02-08T07:35:00.003Z,17.78
2019-02-08T07:36:00.064Z,17.77
2019-02-08T07:36:59.868Z,17.76
2019-02-08T07:38:01.578Z,17.76
2019-02-08T07:38:59.509Z,17.76
2019-02-08T07:40:00.291Z,17.76
2019-02-08T07:40:59.350Z,17.74
2019-02-08T07:41:59.663Z,17.75
2019-02-08T07:43:01.004Z,17.76
2019-02-08T07:44:01.463Z,17.77
2019-02-08T07:45:00.009Z,17.76
2019-02-08T07:45:59.516Z,17.76
2019-02-08T07:46:59.713Z,17.76
2019-02-08T07:48:00.188Z,17.75
2019-02-08T07:49:01.552Z,17.77
2019-02-08T07:50:00.084Z,17.77
2019-02-08T07:50:59.510Z,17.76
2019-02-08T07:52:00.056Z,17.75
2019-02-08T07:53:00.459Z,17.77
2019-02-08T07:53:59.964Z,17.75
2019-02-08T07:55:01.351Z,17.76
2019-02-08T07:56:00.011Z,17.74
2019-02-08T07:57:00.391Z,17.76
2019-02-08T07:57:59.784Z,17.77
2019-02-08T07:58:59.792Z,17.8
2019-02-08T07:59:59.708Z,17.78
2019-02-08T08:00:59.657Z,17.77
2019-02-08T08:01:59.581Z,17.77
2019-02-08T08:03:00.041Z,17.77
2019-02-08T08:04:01.924Z,17.77
2019-02-08T08:04:59.453Z,17.79
2019-02-08T08:05:59.807Z,17.78
2019-02-08T08:06:59.743Z,17.78
2019-02-08T08:08:00.637Z,17.8
2019-02-08T08:08:59.541Z,17.79
2019-02-08T08:09:59.892Z,17.78
2019-02-08T08:10:59.746Z,17.8
2019-02-08T08:11:59.501Z,17.8
2019-02-08T08:12:59.897Z,17.81
2019-02-08T08:13:59.493Z,17.82
2019-02-08T08:14:59.367Z,17.81
2019-02-08T08:16:00.069Z,17.82
2019-02-08T08:16:59.947Z,17.82
2019-02-08T08:18:00.355Z,17.81
2019-02-08T08:19:00.161Z,17.83
2019-02-08T08:19:59.981Z,17.85
2019-02-08T08:20:59.867Z,17.83
2019-02-08T08:22:00.192Z,17.83
2019-02-08T08:22:59.886Z,17.83
2019-02-08T08:23:59.908Z,17.84
2019-02-08T08:24:59.996Z,17.84
2019-02-08T08:25:59.705Z,17.85
2019-02-08T08:26:59.490Z,17.85
2019-02-08T08:28:00.014Z,17.88
2019-02-08T08:29:00.020Z,17.84
2019-02-08T08:29:59.477Z,17.87
2019-02-08T08:31:00.046Z,17.88
2019-02-08T08:31:59.547Z,17.85
2019-02-08T08:33:00.061Z,17.88
2019-02-08T08:33:59.654Z,17.88
2019-02-08T08:34:59.970Z,17.89
2019-02-08T08:36:00.035Z,17.88
2019-02-08T08:36:59.573Z,17.89
2019-02-08T08:37:59.813Z,17.89
2019-02-08T08:38:59.905Z,17.87
2019-02-08T08:39:59.592Z,17.88
2019-02-08T08:40:59.909Z,17.88
2019-02-08T08:41:59.948Z,17.89
2019-02-08T08:43:00.031Z,17.91
2019-02-08T08:44:00.123Z,17.9
2019-02-08T08:45:00.001Z,17.89
2019-02-08T08:45:59.558Z,17.9
2019-02-08T08:46:59.984Z,17.9
2019-02-08T08:47:59.758Z,17.92
2019-02-08T08:49:00.060Z,17.91
2019-02-08T08:49:59.964Z,17.91
2019-02-08T08:50:59.790Z,17.91
2019-02-08T08:51:59.796Z,17.92
2019-02-08T08:52:59.805Z,17.92
2019-02-08T08:53:59.622Z,17.92
2019-02-08T08:54:59.800Z,17.93
2019-02-08T08:55:59.687Z,17.95
2019-02-08T08:56:59.451Z,17.95
2019-02-08T08:58:00.054Z,17.96
2019-02-08T08:58:59.836Z,17.97
2019-02-08T08:59:59.539Z,17.99
2019-02-08T09:01:00.061Z,17.99
2019-02-08T09:01:59.890Z,17.99
2019-02-08T09:03:00.207Z,18
2019-02-08T09:03:59.466Z,18.04
2019-02-08T09:04:59.485Z,18.07
2019-02-08T09:05:59.590Z,18.08
2019-02-08T09:07:00.184Z,18.12
2019-02-08T09:08:00.401Z,18.13
2019-02-08T09:08:59.481Z,18.12
2019-02-08T09:09:59.794Z,18.15
2019-02-08T09:11:00.173Z,18.17
2019-02-08T09:11:59.390Z,18.19
2019-02-08T09:12:59.748Z,18.2
2019-02-08T09:13:59.921Z,18.22
2019-02-08T09:14:59.485Z,18.24
2019-02-08T09:15:59.943Z,18.26
2019-02-08T09:16:59.471Z,18.29
2019-02-08T09:17:59.557Z,18.3
2019-02-08T09:18:59.688Z,18.32
2019-02-08T09:19:59.658Z,18.34
2019-02-08T09:20:59.896Z,18.37
2019-02-08T09:21:59.670Z,18.38
2019-02-08T09:22:59.797Z,18.41
2019-02-08T09:23:59.581Z,18.43
2019-02-08T09:24:59.433Z,18.46
2019-02-08T09:25:59.930Z,18.46
2019-02-08T09:26:59.834Z,18.49
2019-02-08T09:28:00.689Z,18.53
2019-02-08T09:28:59.328Z,18.52
2019-02-08T09:30:00.386Z,18.54
2019-02-08T09:30:59.908Z,18.55
2019-02-08T09:31:59.852Z,18.57
2019-02-08T09:32:59.845Z,18.58
2019-02-08T09:33:59.370Z,18.58
2019-02-08T09:35:00.019Z,18.62
2019-02-08T09:35:59.993Z,18.64
2019-02-08T09:37:01.361Z,18.63
2019-02-08T09:37:59.549Z,18.67
2019-02-08T09:39:01.445Z,18.66
2019-02-08T09:39:59.569Z,18.66
2019-02-08T09:40:59.458Z,18.66
2019-02-08T09:41:59.607Z,18.66
2019-02-08T09:42:59.653Z,18.67
2019-02-08T09:43:59.849Z,18.68
2019-02-08T09:44:59.841Z,18.68
2019-02-08T09:46:00.069Z,18.68
2019-02-08T09:46:59.908Z,18.66
2019-02-08T09:47:59.811Z,18.69
2019-02-08T09:48:59.883Z,18.7
2019-02-08T09:49:59.802Z,18.71
2019-02-08T09:50:59.927Z,18.73
2019-02-08T09:51:59.577Z,18.72
2019-02-08T09:52:59.992Z,18.73
2019-02-08T09:53:59.748Z,18.72
2019-02-08T09:54:59.565Z,18.76
2019-02-08T09:56:00.176Z,18.76
2019-02-08T09:56:59.334Z,18.79
2019-02-08T09:57:59.757Z,18.81
2019-02-08T09:59:00.412Z,18.77
2019-02-08T10:00:00.006Z,18.79
2019-02-08T10:00:59.962Z,18.79
2019-02-08T10:01:59.956Z,18.8
2019-02-08T10:02:59.721Z,18.82
2019-02-08T10:04:00.201Z,18.83
2019-02-08T10:04:59.784Z,18.81
2019-02-08T10:05:59.805Z,18.82
2019-02-08T10:06:59.482Z,18.83
2019-02-08T10:08:00.007Z,18.81
2019-02-08T10:09:00.487Z,18.83
2019-02-08T10:09:59.723Z,18.84
2019-02-08T10:10:59.806Z,18.84
2019-02-08T10:12:01.236Z,18.84
2019-02-08T10:12:59.394Z,18.84
2019-02-08T10:14:00.086Z,18.84
2019-02-08T10:14:59.543Z,18.83
2019-02-08T10:15:59.996Z,18.87
2019-02-08T10:16:59.811Z,18.85
2019-02-08T10:17:59.787Z,18.85
2019-02-08T10:18:59.802Z,18.84
2019-02-08T10:20:00.551Z,18.85
2019-02-08T10:21:00.318Z,18.86
2019-02-08T10:21:59.567Z,18.85
2019-02-08T10:22:59.715Z,18.89
2019-02-08T10:23:59.839Z,18.88
2019-02-08T10:25:00.819Z,18.89
2019-02-08T10:26:05.788Z,18.88
2019-02-08T10:26:59.913Z,18.89
2019-02-08T10:28:00.057Z,18.92
2019-02-08T10:29:00.160Z,18.93
2019-02-08T10:30:00.220Z,18.94
2019-02-08T10:30:59.546Z,18.94
2019-02-08T10:32:00.104Z,18.94
2019-02-08T10:32:59.981Z,18.97
2019-02-08T10:33:59.499Z,18.98
2019-02-08T10:34:59.587Z,19.01
2019-02-08T10:36:01.356Z,18.98
2019-02-08T10:36:59.955Z,19
2019-02-08T10:37:59.915Z,19.01
2019-02-08T10:38:59.951Z,19.01
2019-02-08T10:39:59.772Z,19.05
2019-02-08T10:40:59.683Z,19.05
2019-02-08T10:41:59.843Z,19.08
2019-02-08T10:43:01.450Z,19.08
2019-02-08T10:43:59.481Z,19.08
2019-02-08T10:45:00.434Z,19.13
2019-02-08T10:46:00.077Z,19.11
2019-02-08T10:46:59.355Z,19.12
2019-02-08T10:48:00.040Z,19.13
2019-02-08T10:48:59.999Z,19.17
2019-02-08T10:49:59.738Z,19.15
2019-02-08T10:51:00.243Z,19.21
2019-02-08T10:51:59.847Z,19.21
2019-02-08T10:53:00.376Z,19.18
2019-02-08T10:53:59.835Z,19.21
2019-02-08T10:54:59.779Z,19.23
2019-02-08T10:56:00.109Z,19.24
2019-02-08T10:56:59.907Z,19.23
2019-02-08T10:57:59.502Z,19.24
2019-02-08T10:59:00.086Z,19.25
2019-02-08T10:59:59.573Z,19.25
2019-02-08T11:01:00.104Z,19.27
2019-02-08T11:01:59.570Z,19.26
2019-02-08T11:02:59.788Z,19.28
2019-02-08T11:03:59.704Z,19.28
2019-02-08T11:04:59.909Z,19.28
2019-02-08T11:05:59.839Z,19.3
2019-02-08T11:06:59.983Z,19.31
2019-02-08T11:08:00.552Z,19.33
2019-02-08T11:09:01.270Z,19.35
2019-02-08T11:10:00.298Z,19.32
2019-02-08T11:11:00.047Z,19.31
2019-02-08T11:11:59.923Z,19.35
2019-02-08T11:12:59.848Z,19.32
2019-02-08T11:13:59.891Z,19.32
2019-02-08T11:15:00.049Z,19.32
2019-02-08T11:16:00.094Z,19.35
2019-02-08T11:16:59.660Z,19.35
2019-02-08T11:18:00.437Z,19.36
2019-02-08T11:19:00.319Z,19.36
2019-02-08T11:20:00.285Z,19.32
2019-02-08T11:21:00.044Z,19.36
2019-02-08T11:21:59.941Z,19.36
2019-02-08T11:22:59.948Z,19.36
2019-02-08T11:23:59.951Z,19.36
2019-02-08T11:24:59.650Z,19.36
2019-02-08T11:26:01.347Z,19.37
2019-02-08T11:27:00.193Z,19.36
2019-02-08T11:27:59.957Z,19.39
2019-02-08T11:28:59.544Z,19.38
2019-02-08T11:30:00.406Z,19.38
2019-02-08T11:30:59.539Z,19.38
2019-02-08T11:31:59.889Z,19.38
2019-02-08T11:32:59.457Z,19.39
2019-02-08T11:33:59.706Z,19.39
2019-02-08T11:34:59.634Z,19.39
2019-02-08T11:35:59.597Z,19.39
2019-02-08T11:36:59.896Z,19.37
2019-02-08T11:37:59.665Z,19.38
2019-02-08T11:39:01.368Z,19.39
2019-02-08T11:39:59.462Z,19.38
2019-02-08T11:41:00.799Z,19.38
2019-02-08T11:41:59.835Z,19.39
2019-02-08T11:42:59.989Z,19.4
2019-02-08T11:43:59.822Z,19.39
2019-02-08T11:44:59.831Z,19.39
2019-02-08T11:45:59.605Z,19.38
2019-02-08T11:46:59.899Z,19.37
2019-02-08T11:47:59.299Z,19.39
2019-02-08T11:49:01.326Z,19.38
2019-02-08T11:49:59.613Z,19.38
2019-02-08T11:50:59.478Z,19.4
2019-02-08T11:52:00.261Z,19.4
2019-02-08T11:52:59.767Z,19.41
2019-02-08T11:53:59.904Z,19.4
2019-02-08T11:54:59.473Z,19.4
2019-02-08T11:55:59.806Z,19.44
2019-02-08T11:56:59.970Z,19.42
2019-02-08T11:57:59.922Z,19.43
2019-02-08T11:58:59.499Z,19.44
2019-02-08T11:59:59.644Z,19.44
2019-02-08T12:00:59.502Z,19.44
2019-02-08T12:02:01.257Z,19.44
2019-02-08T12:03:00.526Z,19.44
2019-02-08T12:04:01.301Z,19.46
2019-02-08T12:04:59.817Z,19.48
2019-02-08T12:06:00.182Z,19.5
2019-02-08T12:06:59.467Z,19.48
2019-02-08T12:08:00.192Z,19.5
2019-02-08T12:08:59.763Z,19.5
2019-02-08T12:10:01.331Z,19.52
2019-02-08T12:10:59.899Z,19.52
2019-02-08T12:12:01.217Z,19.53
2019-02-08T12:12:59.571Z,19.52
2019-02-08T12:13:59.891Z,19.53
2019-02-08T12:14:59.461Z,19.52
2019-02-08T12:15:59.558Z,19.54
2019-02-08T12:17:00.489Z,19.56
2019-02-08T12:17:59.777Z,19.55
2019-02-08T12:19:00.021Z,19.56
2019-02-08T12:19:59.828Z,19.55
2019-02-08T12:21:00.548Z,19.59
2019-02-08T12:21:59.994Z,19.58
2019-02-08T12:22:59.509Z,19.59
2019-02-08T12:24:00.872Z,19.58
2019-02-08T12:24:59.945Z,19.61
2019-02-08T12:25:59.801Z,19.62
2019-02-08T12:26:59.350Z,19.62
2019-02-08T12:28:00.277Z,19.63
2019-02-08T12:28:59.385Z,19.6
2019-02-08T12:29:59.765Z,19.62
2019-02-08T12:31:01.438Z,19.62
2019-02-08T12:31:59.738Z,19.6
2019-02-08T12:32:59.870Z,19.65
2019-02-08T12:34:00.046Z,19.66
2019-02-08T12:34:59.747Z,19.63
2019-02-08T12:36:00.370Z,19.66
2019-02-08T12:36:59.249Z,19.66
2019-02-08T12:37:59.481Z,19.66
2019-02-08T12:39:00.568Z,19.67
2019-02-08T12:40:01.253Z,19.67
2019-02-08T12:40:59.897Z,19.68
2019-02-08T12:41:59.700Z,19.69
2019-02-08T12:42:59.395Z,19.69
2019-02-08T12:43:59.770Z,19.68
2019-02-08T12:44:59.924Z,19.69
2019-02-08T12:45:59.373Z,19.71
2019-02-08T12:46:59.552Z,19.7
2019-02-08T12:47:59.940Z,19.71
2019-02-08T12:48:59.482Z,19.7
2019-02-08T12:49:59.671Z,19.72
2019-02-08T12:50:59.855Z,19.71
2019-02-08T12:51:59.870Z,19.71
2019-02-08T12:53:00.052Z,19.72
2019-02-08T12:54:01.274Z,19.7
2019-02-08T12:54:59.858Z,19.69